Time;durP1;ratioP1;P1;durP2;ratioP2;P2;SDS_P1;SDS_P2;PMS_P1;PMS_P2;Temp;Humidity;BMP_temperature;BMP_pressure;BME280_temperature;BME280_humidity;BME280_pressure;Samples;Min_cycle;Max_cycle;Signal;HPM_P1;HPM_P2
2023/09/26 00:00:57;;;;;;;2.05;1.60;;;;;;;20.18;54.97;102205.34;5114703;28;20139;-81
2023/09/26 00:03:22;;;;;;;2.33;1.73;;;;;;;20.03;55.06;102176.25;5107585;28;20020;-81
2023/09/26 00:05:50;;;;;;;1.95;1.42;;;;;;;19.99;55.09;102175.66;5117883;28;20055;-81
2023/09/26 00:08:16;;;;;;;1.92;1.50;;;;;;;20.17;54.98;102198.22;5113715;28;20027;-81
2023/09/26 00:10:41;;;;;;;2.28;1.40;;;;;;;20.05;55.03;102171.53;5093732;28;20492;-81
2023/09/26 00:13:07;;;;;;;2.13;1.67;;;;;;;20.18;54.91;102197.25;5118508;28;20059;-82
2023/09/26 00:15:33;;;;;;;1.73;1.42;;;;;;;19.90;55.07;102155.78;5113029;28;20024;-82
2023/09/26 00:17:58;;;;;;;2.70;1.58;;;;;;;19.96;55.05;102160.63;5109341;28;20027;-81
2023/09/26 00:20:23;;;;;;;2.53;1.75;;;;;;;20.09;55.19;102189.13;5115262;28;20117;-80
2023/09/26 00:22:49;;;;;;;2.22;1.58;;;;;;;20.00;55.33;102166.56;5110967;28;20033;-81
2023/09/26 00:25:15;;;;;;;3.35;1.85;;;;;;;20.15;55.23;102202.06;5112203;28;20024;-82
2023/09/26 00:27:40;;;;;;;2.30;1.80;;;;;;;20.15;55.00;102202.94;5116375;28;20016;-81
2023/09/26 00:30:08;;;;;;;2.17;1.70;;;;;;;19.98;55.34;102171.28;5106579;28;20063;-82
2023/09/26 00:32:33;;;;;;;1.60;1.45;;;;;;;20.15;55.08;102197.53;5108662;28;20384;-82
2023/09/26 00:34:59;;;;;;;1.95;1.60;;;;;;;19.82;55.06;102138.63;5103796;28;20020;-82
2023/09/26 00:37:24;;;;;;;1.85;1.45;;;;;;;20.09;55.07;102181.91;5096794;28;20020;-82
2023/09/26 00:39:49;;;;;;;1.80;1.50;;;;;;;20.00;55.07;102154.91;5109562;28;20046;-81
2023/09/26 00:42:15;;;;;;;2.75;1.73;;;;;;;20.06;55.15;102168.69;5105413;28;20103;-81
2023/09/26 00:44:40;;;;;;;3.20;2.10;;;;;;;19.83;55.02;102137.63;5106175;28;20084;-81
2023/09/26 00:47:05;;;;;;;2.00;1.60;;;;;;;19.87;55.03;102149.84;5113351;28;20024;-81
2023/09/26 00:49:31;;;;;;;2.60;1.55;;;;;;;19.97;54.91;102164.19;5120663;28;20020;-81
2023/09/26 00:51:59;;;;;;;2.15;1.50;;;;;;;20.04;54.91;102169.84;5109607;28;20023;-81
2023/09/26 00:54:25;;;;;;;2.08;1.48;;;;;;;19.77;54.79;102130.97;5107107;28;20030;-80
2023/09/26 00:56:50;;;;;;;2.30;1.80;;;;;;;20.08;55.18;102179.34;5107119;28;20068;-81
2023/09/26 00:59:16;;;;;;;2.10;1.35;;;;;;;19.84;55.07;102136.66;5117502;28;20031;-81
2023/09/26 01:01:42;;;;;;;1.90;1.58;;;;;;;20.12;54.89;102186.16;5110252;28;20063;-80
2023/09/26 01:04:07;;;;;;;1.92;1.60;;;;;;;19.96;54.96;102154.34;5118204;28;20036;-81
2023/09/26 01:06:34;;;;;;;1.60;1.23;;;;;;;19.96;55.16;102157.06;5110378;28;20115;-81
2023/09/26 01:09:00;;;;;;;2.10;1.60;;;;;;;20.10;55.29;102172.81;5109906;28;20051;-81
2023/09/26 01:11:26;;;;;;;1.95;1.50;;;;;;;19.82;55.12;102123.28;5109157;28;20078;-81
2023/09/26 01:13:51;;;;;;;2.40;1.73;;;;;;;20.09;55.09;102171.13;5110989;28;20036;-82
2023/09/26 01:16:18;;;;;;;2.17;1.50;;;;;;;20.09;54.85;102156.75;5103489;28;20035;-82
2023/09/26 01:18:44;;;;;;;1.92;1.60;;;;;;;20.08;55.23;102164.00;5110422;28;20032;-81
2023/09/26 01:21:10;;;;;;;2.63;1.90;;;;;;;20.08;54.85;102158.59;5119967;28;20024;-81
2023/09/26 01:23:37;;;;;;;2.47;1.88;;;;;;;20.08;55.24;102158.59;5110292;28;20107;-80
2023/09/26 01:26:02;;;;;;;1.50;1.40;;;;;;;19.79;55.23;102118.16;5103418;28;20023;-82
2023/09/26 01:28:28;;;;;;;2.15;1.50;;;;;;;19.93;54.93;102147.41;5113253;28;20063;-82
2023/09/26 01:30:53;;;;;;;2.53;1.70;;;;;;;19.78;55.03;102110.22;5112332;28;20047;-81
2023/09/26 01:33:21;;;;;;;1.80;1.40;;;;;;;20.06;55.12;102160.59;5120597;28;20032;-82
2023/09/26 01:35:48;;;;;;;2.05;1.70;;;;;;;19.93;54.91;102135.78;5117271;28;20027;-81
2023/09/26 01:38:13;;;;;;;1.90;1.55;;;;;;;20.01;55.17;102156.63;5109623;28;20080;-82
2023/09/26 01:40:40;;;;;;;3.63;1.90;;;;;;;19.92;54.95;102140.31;5104422;28;20031;-81
2023/09/26 01:43:06;;;;;;;2.60;1.98;;;;;;;19.82;55.08;102128.69;5114809;28;20079;-82
2023/09/26 01:45:31;;;;;;;2.05;1.70;;;;;;;19.96;54.41;102149.84;5097548;28;20028;-82
2023/09/26 01:47:57;;;;;;;1.60;1.38;;;;;;;19.82;55.10;102131.38;5112240;28;20094;-82
2023/09/26 01:50:23;;;;;;;1.98;1.77;;;;;;;19.45;55.11;102074.59;5114048;28;20112;-82
2023/09/26 01:52:49;;;;;;;2.53;1.75;;;;;;;19.93;54.99;102157.38;5095118;28;20107;-81
2023/09/26 01:55:21;;;;;;;2.60;1.83;;;;;;;20.02;54.75;102180.78;5102440;28;20024;-82
2023/09/26 01:57:50;;;;;;;2.20;1.60;;;;;;;19.88;54.65;102154.22;5113703;28;20132;-81
2023/09/26 02:00:17;;;;;;;1.80;1.50;;;;;;;19.83;54.81;102151.97;5106361;28;20031;-82
2023/09/26 02:02:48;;;;;;;2.72;1.90;;;;;;;20.01;54.94;102186.31;5121789;28;20024;-82
2023/09/26 02:05:16;;;;;;;2.00;1.65;;;;;;;19.92;54.96;102172.72;5123791;28;20019;-81
2023/09/26 02:07:42;;;;;;;2.38;1.80;;;;;;;19.92;54.76;102171.84;5112347;28;20016;-80
2023/09/26 02:10:08;;;;;;;2.35;1.70;;;;;;;19.98;54.97;102179.38;5123732;28;20074;-81
2023/09/26 02:12:35;;;;;;;2.03;1.73;;;;;;;19.97;54.85;102175.81;5108313;28;20085;-81
2023/09/26 02:15:05;;;;;;;1.95;1.70;;;;;;;19.68;54.90;102126.44;5114101;27;20031;-82
2023/09/26 02:17:33;;;;;;;2.13;1.70;;;;;;;19.90;55.16;102152.25;5107975;28;20069;-82
2023/09/26 02:19:59;;;;;;;2.15;1.90;;;;;;;19.96;54.89;102157.94;5108629;28;20508;-81
2023/09/26 02:22:24;;;;;;;2.72;1.83;;;;;;;19.96;55.04;102148.97;5096867;28;20034;-82
2023/09/26 02:24:52;;;;;;;3.05;1.88;;;;;;;19.92;54.89;102142.16;5118875;28;20028;-81
2023/09/26 02:27:17;;;;;;;1.90;1.60;;;;;;;19.71;54.80;102110.81;5111487;28;20054;-82
2023/09/26 02:29:44;;;;;;;1.77;1.55;;;;;;;19.82;54.71;102125.13;5117916;28;20024;-81
2023/09/26 02:32:09;;;;;;;3.00;1.85;;;;;;;19.73;55.12;102110.66;5117407;28;20025;-82
2023/09/26 02:34:34;;;;;;;1.63;1.48;;;;;;;19.67;54.99;102097.75;5109727;28;20558;-81
2023/09/26 02:37:00;;;;;;;2.22;1.60;;;;;;;19.77;54.64;102116.63;5119598;28;20442;-81
2023/09/26 02:39:25;;;;;;;2.40;1.58;;;;;;;19.85;54.67;102141.91;5106144;28;20073;-81
2023/09/26 02:41:51;;;;;;;2.83;1.75;;;;;;;19.91;54.73;102138.59;5108017;28;20023;-81
2023/09/26 02:44:16;;;;;;;1.98;1.50;;;;;;;19.60;54.92;102097.44;5109701;28;20106;-82
2023/09/26 02:46:41;;;;;;;2.15;1.58;;;;;;;19.73;54.72;102121.47;5109224;28;20015;-82
2023/09/26 02:49:07;;;;;;;2.35;1.83;;;;;;;19.77;54.77;102128.28;5111232;28;20094;-82
2023/09/26 02:51:32;;;;;;;2.15;1.70;;;;;;;19.84;55.04;102147.44;5106589;28;20487;-81
2023/09/26 02:53:57;;;;;;;2.63;2.08;;;;;;;19.30;54.75;102049.94;5108659;28;20062;-81
2023/09/26 02:56:23;;;;;;;2.45;1.88;;;;;;;19.88;54.63;102144.31;5110321;28;20095;-82
2023/09/26 02:58:48;;;;;;;3.10;2.05;;;;;;;19.65;54.97;102115.94;5105528;28;20034;-81
2023/09/26 03:01:17;;;;;;;2.20;1.70;;;;;;;19.59;55.02;102092.19;5109617;28;20036;-79
2023/09/26 03:03:42;;;;;;;;;;;;;;;19.87;54.85;102147.97;5111311;28;20028;-82
2023/09/26 03:06:08;;;;;;;2.60;1.75;;;;;;;19.59;54.65;102100.31;5108820;28;19975;-82
2023/09/26 03:08:33;;;;;;;2.53;1.63;;;;;;;19.78;54.69;102132.66;5099680;28;20083;-82
2023/09/26 03:10:59;;;;;;;1.88;1.45;;;;;;;19.85;54.72;102146.44;5097037;28;20110;-82
2023/09/26 03:13:24;;;;;;;3.28;1.83;;;;;;;19.84;54.95;102142.91;5111375;28;20448;-82
2023/09/26 03:15:56;;;;;;;2.10;1.60;;;;;;;19.67;54.85;102104.00;5111308;27;20043;-82
2023/09/26 03:18:21;;;;;;;3.28;1.90;;;;;;;19.84;54.99;102124.00;5113669;28;20039;-82
2023/09/26 03:20:47;;;;;;;2.53;1.70;;;;;;;19.84;54.72;102125.84;5094271;28;20042;-81
2023/09/26 03:23:13;;;;;;;2.42;1.73;;;;;;;19.64;54.73;102081.84;5107573;28;20050;-81
2023/09/26 03:25:38;;;;;;;2.60;1.77;;;;;;;19.64;54.93;102080.00;5113152;28;20028;-81
2023/09/26 03:28:04;;;;;;;1.92;1.70;;;;;;;19.59;54.79;102071.47;5110993;28;20121;-82
2023/09/26 03:30:29;;;;;;;2.70;1.90;;;;;;;19.50;54.63;102061.56;5109748;28;20028;-82
2023/09/26 03:32:54;;;;;;;2.70;1.60;;;;;;;19.74;54.65;102096.16;5112699;28;20539;-82
2023/09/26 03:35:20;;;;;;;3.60;1.70;;;;;;;19.75;54.71;102113.19;5111889;28;20031;-82
2023/09/26 03:37:45;;;;;;;3.10;2.00;;;;;;;19.81;54.56;102120.75;5109474;28;20035;-81
2023/09/26 03:40:10;;;;;;;1.90;1.70;;;;;;;19.61;54.72;102088.38;5114597;28;20039;-81
2023/09/26 03:42:39;;;;;;;1.85;1.67;;;;;;;19.56;54.57;102085.25;5104498;28;20621;-81
2023/09/26 03:45:06;;;;;;;2.63;2.00;;;;;;;19.79;54.64;102118.16;5112631;28;20043;-81
2023/09/26 03:47:31;;;;;;;2.92;1.63;;;;;;;19.73;54.46;102094.47;5115835;28;20057;-81
2023/09/26 03:49:57;;;;;;;2.95;2.28;;;;;;;19.54;54.92;102064.78;5115619;28;20020;-82
2023/09/26 03:52:23;;;;;;;2.50;1.75;;;;;;;19.59;54.77;102068.78;5114585;28;20038;-82
2023/09/26 03:54:49;;;;;;;2.97;1.80;;;;;;;19.63;54.40;102072.91;5105002;28;20030;-81
2023/09/26 03:57:14;;;;;;;2.45;1.95;;;;;;;19.70;54.90;102094.75;5106637;28;20035;-81
2023/09/26 03:59:39;;;;;;;2.83;2.17;;;;;;;19.42;54.32;102048.78;5118575;28;20031;-81
2023/09/26 04:02:04;;;;;;;3.55;1.90;;;;;;;19.48;54.56;102058.97;5104316;28;20020;-81
2023/09/26 04:04:31;;;;;;;2.00;1.80;;;;;;;19.76;54.77;102101.44;5108270;28;20028;-81
2023/09/26 04:06:57;;;;;;;2.63;1.92;;;;;;;19.45;54.13;102062.00;5120606;28;20077;-81
2023/09/26 04:09:22;;;;;;;3.42;2.08;;;;;;;19.74;54.66;102098.88;5112586;28;20481;-83
2023/09/26 04:11:48;;;;;;;3.58;1.90;;;;;;;19.59;54.54;102078.72;5123136;28;20034;-81
2023/09/26 04:14:13;;;;;;;2.88;2.17;;;;;;;19.66;54.47;102091.50;5119732;27;20039;-82
2023/09/26 04:16:38;;;;;;;2.58;1.90;;;;;;;19.52;54.45;102064.94;5111135;28;20572;-82
2023/09/26 04:19:04;;;;;;;2.47;1.98;;;;;;;19.72;54.81;102093.63;5109638;28;20101;-82
2023/09/26 04:21:29;;;;;;;2.40;1.95;;;;;;;19.71;54.80;102094.63;5116650;28;20058;-81
2023/09/26 04:23:55;;;;;;;2.85;1.80;;;;;;;19.66;54.38;102079.84;5108281;28;20034;-82
2023/09/26 04:26:20;;;;;;;1.90;1.70;;;;;;;19.58;54.53;102071.59;5113429;28;20066;-82
2023/09/26 04:28:46;;;;;;;2.22;1.80;;;;;;;19.71;54.36;102088.38;5117192;28;20067;-82
2023/09/26 04:31:16;;;;;;;2.20;1.80;;;;;;;19.70;54.64;102090.22;5108286;28;20123;-82
2023/09/26 04:33:42;;;;;;;2.90;1.83;;;;;;;19.63;54.40;102086.41;5116226;28;20043;-82
2023/09/26 04:36:08;;;;;;;3.10;1.80;;;;;;;19.69;54.33;102102.00;5112161;28;20593;-81
2023/09/26 04:38:33;;;;;;;2.83;2.20;;;;;;;19.62;54.10;102076.59;5103010;28;20024;-82
2023/09/26 04:41:02;;;;;;;3.00;1.90;;;;;;;19.17;54.15;101995.47;5119660;28;20043;-81
2023/09/26 04:43:28;;;;;;;2.80;2.17;;;;;;;19.57;54.35;102062.66;5110786;28;20031;-81
2023/09/26 04:45:54;;;;;;;3.78;2.10;;;;;;;19.67;54.70;102077.03;5107628;28;20034;-82
2023/09/26 04:48:19;;;;;;;2.45;1.92;;;;;;;19.62;54.56;102079.28;5119404;28;20028;-82
2023/09/26 04:50:44;;;;;;;2.50;2.03;;;;;;;19.04;54.12;101989.53;5110922;28;20024;-80
2023/09/26 04:53:09;;;;;;;2.58;2.08;;;;;;;19.66;54.36;102096.88;5114130;28;20031;-82
2023/09/26 04:55:36;;;;;;;2.90;1.98;;;;;;;19.45;54.75;102063.81;5110830;28;20026;-82
2023/09/26 04:58:01;;;;;;;2.90;2.45;;;;;;;19.64;54.42;102093.50;5103510;28;20058;-82
2023/09/26 05:00:28;;;;;;;2.10;1.90;;;;;;;19.64;54.40;102096.19;5103233;28;20020;-82
2023/09/26 05:02:53;;;;;;;3.13;2.10;;;;;;;19.13;54.62;102005.66;5104939;28;20054;-81
2023/09/26 05:05:19;;;;;;;3.15;2.28;;;;;;;19.64;54.47;102090.78;5099900;28;20020;-82
2023/09/26 05:07:44;;;;;;;2.92;2.00;;;;;;;19.63;54.33;102082.84;5109768;28;20373;-82
2023/09/26 05:10:11;;;;;;;2.45;1.92;;;;;;;18.97;54.30;101983.84;5106881;28;20059;-81
2023/09/26 05:12:42;;;;;;;2.25;1.88;;;;;;;19.26;54.47;102016.16;5104203;28;20026;-81
2023/09/26 05:15:12;;;;;;;2.63;2.10;;;;;;;19.23;54.26;102025.38;5104064;28;20023;-80
2023/09/26 05:17:41;;;;;;;2.30;1.92;;;;;;;19.03;54.43;101999.44;5103074;28;20085;-81
2023/09/26 05:20:09;;;;;;;2.55;1.98;;;;;;;19.26;54.47;102026.09;5104764;28;20633;-81
2023/09/26 05:22:35;;;;;;;3.08;2.20;;;;;;;19.60;54.40;102085.81;5094922;28;20027;-82
2023/09/26 05:25:00;;;;;;;2.72;2.00;;;;;;;19.28;54.42;102034.88;5119345;28;20108;-82
2023/09/26 05:27:25;;;;;;;2.83;2.30;;;;;;;19.17;54.18;102017.88;5108697;28;20039;-82
2023/09/26 05:29:50;;;;;;;2.47;2.03;;;;;;;19.13;54.38;102018.31;5108661;28;20032;-81
2023/09/26 05:32:16;;;;;;;2.83;2.13;;;;;;;19.59;54.43;102090.34;5118198;28;20036;-81
2023/09/26 05:34:41;;;;;;;3.40;2.17;;;;;;;19.34;54.24;102047.81;5109336;28;20067;-81
2023/09/26 05:37:06;;;;;;;2.90;1.95;;;;;;;19.59;54.36;102084.97;5112569;28;20073;-81
2023/09/26 05:39:31;;;;;;;2.67;2.00;;;;;;;19.25;54.31;102044.13;5124286;28;20027;-81
2023/09/26 05:41:57;;;;;;;2.40;2.00;;;;;;;19.29;54.50;102050.09;5113253;28;20028;-81
2023/09/26 05:44:22;;;;;;;3.58;2.78;;;;;;;19.31;54.11;102053.47;5115485;28;20027;-81
2023/09/26 05:46:48;;;;;;;3.10;2.42;;;;;;;18.93;54.26;101985.97;5109758;28;20012;-81
2023/09/26 05:49:13;;;;;;;2.92;2.20;;;;;;;19.28;54.00;102038.41;5114920;28;20047;-80
2023/09/26 05:51:38;;;;;;;2.97;2.22;;;;;;;19.56;54.16;102090.63;5115501;28;20083;-80
2023/09/26 05:54:04;;;;;;;2.55;2.22;;;;;;;19.56;54.47;102093.34;5110494;28;20027;-81
2023/09/26 05:56:29;;;;;;;3.97;2.25;;;;;;;19.48;54.06;102085.94;5115930;28;20028;-81
2023/09/26 05:58:54;;;;;;;2.70;1.90;;;;;;;19.15;54.44;102011.75;5122292;28;20031;-81
2023/09/26 06:01:20;;;;;;;3.05;2.55;;;;;;;19.21;54.25;102027.38;5110087;28;20020;-82
2023/09/26 06:03:45;;;;;;;2.65;2.10;;;;;;;19.55;54.41;102072.75;5118440;28;20019;-81
2023/09/26 06:06:11;;;;;;;3.08;2.50;;;;;;;18.88;54.69;101979.31;5113225;28;20055;-81
2023/09/26 06:08:36;;;;;;;2.10;1.90;;;;;;;19.29;54.31;102032.06;5111525;28;20167;-81
2023/09/26 06:11:02;;;;;;;2.78;2.28;;;;;;;19.54;53.88;102071.06;5108101;28;20127;-81
2023/09/26 06:13:27;;;;;;;2.47;2.03;;;;;;;19.41;54.29;102049.78;5113444;28;20031;-82
2023/09/26 06:15:53;;;;;;;2.55;2.20;;;;;;;19.13;54.10;102002.97;5117976;27;20031;-81
2023/09/26 06:18:18;;;;;;;3.22;2.30;;;;;;;19.53;54.24;102077.44;5107152;28;20026;-81
2023/09/26 06:20:44;;;;;;;3.03;2.38;;;;;;;19.19;54.32;102026.66;5112448;28;20032;-81
2023/09/26 06:23:11;;;;;;;3.78;2.20;;;;;;;19.48;54.19;102077.00;5116125;28;20027;-81
2023/09/26 06:25:36;;;;;;;2.95;2.17;;;;;;;19.27;54.38;102036.72;5117741;28;20032;-81
2023/09/26 06:28:02;;;;;;;3.88;2.40;;;;;;;19.32;54.35;102047.94;5092333;28;20035;-82
2023/09/26 06:30:28;;;;;;;2.50;2.17;;;;;;;19.53;54.39;102079.28;5118066;28;20024;-82
2023/09/26 06:32:54;;;;;;;3.97;2.50;;;;;;;18.98;54.27;101999.84;5116263;28;20031;-81
2023/09/26 06:35:19;;;;;;;3.00;2.38;;;;;;;19.26;54.48;102045.81;5109096;28;20032;-81
2023/09/26 06:37:44;;;;;;;2.55;2.30;;;;;;;19.38;54.08;102076.19;5118792;28;20031;-81
2023/09/26 06:40:10;;;;;;;3.08;2.50;;;;;;;19.51;54.30;102095.63;5115377;28;20024;-81
2023/09/26 06:42:38;;;;;;;3.22;2.63;;;;;;;18.96;54.36;102001.00;5109733;28;20020;-81
2023/09/26 06:45:04;;;;;;;2.08;1.88;;;;;;;19.52;54.38;102093.78;5122319;28;20101;-81
2023/09/26 06:47:32;;;;;;;3.72;2.95;;;;;;;19.17;54.35;102039.44;5105189;28;20032;-81
2023/09/26 06:49:57;;;;;;;2.13;1.90;;;;;;;19.31;54.19;102067.81;5119370;28;20047;-81
2023/09/26 06:52:23;;;;;;;2.88;2.33;;;;;;;19.31;54.21;102072.34;5119487;28;20035;-81
2023/09/26 06:54:49;;;;;;;3.42;2.20;;;;;;;19.52;54.12;102093.78;5111855;28;20027;-81
2023/09/26 06:57:17;;;;;;;4.13;2.30;;;;;;;19.38;54.22;102065.41;5107631;28;20084;-82
2023/09/26 06:59:48;;;;;;;2.95;1.98;;;;;;;19.18;54.28;102043.84;5117761;28;20031;-81
2023/09/26 07:02:13;;;;;;;2.90;2.10;;;;;;;19.16;54.22;102039.59;5093756;28;20051;-81
2023/09/26 07:04:38;;;;;;;2.95;2.55;;;;;;;19.51;54.43;102086.69;5108733;28;20401;-80
2023/09/26 07:07:03;;;;;;;3.33;2.30;;;;;;;19.52;54.11;102088.38;5109828;28;20023;-81
2023/09/26 07:09:29;;;;;;;3.55;2.00;;;;;;;19.24;54.25;102039.69;5121217;28;20035;-81
2023/09/26 07:11:55;;;;;;;2.60;2.40;;;;;;;19.31;54.10;102051.63;5105145;28;20087;-81
2023/09/26 07:14:20;;;;;;;2.75;2.13;;;;;;;19.31;54.31;102062.41;5111603;27;20031;-82
2023/09/26 07:16:47;;;;;;;3.25;2.40;;;;;;;19.00;54.43;102007.81;5109069;28;20024;-81
2023/09/26 07:19:12;;;;;;;3.00;2.03;;;;;;;18.86;54.17;101978.56;5109604;27;20083;-81
2023/09/26 07:21:37;;;;;;;3.50;2.38;;;;;;;19.31;54.34;102053.47;5107306;28;20032;-81
2023/09/26 07:24:03;;;;;;;3.28;2.33;;;;;;;19.52;54.21;102089.22;5113504;28;20028;-81
2023/09/26 07:26:29;;;;;;;2.75;2.33;;;;;;;19.14;54.11;102025.38;5113612;28;20047;-81
2023/09/26 07:28:54;;;;;;;2.58;2.13;;;;;;;19.12;54.09;102022.84;5104149;28;20024;-80
2023/09/26 07:31:19;;;;;;;3.20;2.25;;;;;;;19.24;54.17;102026.22;5109641;28;20035;-82
2023/09/26 07:33:45;;;;;;;3.60;2.50;;;;;;;19.52;54.06;102073.03;5110139;28;20497;-82
2023/09/26 07:36:11;;;;;;;3.20;2.22;;;;;;;19.22;54.22;102014.75;5108336;28;20244;-82
2023/09/26 07:38:37;;;;;;;3.70;2.20;;;;;;;19.54;54.40;102067.47;5106027;28;20057;-82
2023/09/26 07:41:03;;;;;;;2.53;2.05;;;;;;;19.41;54.39;102051.59;5098539;28;20024;-81
2023/09/26 07:43:30;;;;;;;2.95;2.13;;;;;;;19.54;54.08;102073.75;5101798;28;20028;-81
2023/09/26 07:46:06;;;;;;;3.38;2.40;;;;;;;19.55;54.20;102086.25;5095661;28;20025;-81
2023/09/26 07:48:36;;;;;;;2.83;2.20;;;;;;;19.20;54.45;102027.53;5102774;28;20103;-81
2023/09/26 07:51:05;;;;;;;3.00;2.15;;;;;;;19.10;54.02;102008.66;5099481;28;20081;-81
2023/09/26 07:53:31;;;;;;;2.65;2.03;;;;;;;19.47;54.26;102067.22;5104045;28;20031;-82
2023/09/26 07:55:57;;;;;;;3.08;2.17;;;;;;;18.95;54.22;101977.75;5092341;28;20483;-81
2023/09/26 07:58:23;;;;;;;2.97;2.40;;;;;;;19.57;54.29;102084.25;5104194;28;20024;-81
2023/09/26 08:00:49;;;;;;;2.65;2.00;;;;;;;18.97;54.24;101981.13;5094312;28;20034;-82
2023/09/26 08:03:16;;;;;;;3.42;2.35;;;;;;;19.22;54.09;102022.84;5091672;28;20586;-81
2023/09/26 08:05:42;;;;;;;2.95;2.42;;;;;;;18.90;54.26;101970.09;5103249;28;20495;-81
2023/09/26 08:08:08;;;;;;;2.72;2.20;;;;;;;19.25;54.37;102022.56;5093929;28;20028;-82
2023/09/26 08:10:38;;;;;;;2.10;1.90;;;;;;;19.39;53.91;102049.06;5090616;28;20028;-81
2023/09/26 08:13:07;;;;;;;3.28;2.30;;;;;;;19.59;54.40;102081.41;5103988;28;20024;-81
2023/09/26 08:15:36;;;;;;;2.53;1.92;;;;;;;19.27;54.01;102030.50;5097802;28;20100;-82
2023/09/26 08:18:02;;;;;;;;;;;;;;;19.61;54.03;102079.44;5092109;27;20023;-81
2023/09/26 08:20:28;;;;;;;2.30;1.83;;;;;;;19.61;54.33;102090.22;5104652;28;19988;-82
2023/09/26 08:22:55;;;;;;;3.20;1.95;;;;;;;18.87;54.03;101959.59;5094073;28;20035;-82
2023/09/26 08:25:24;;;;;;;4.05;2.83;;;;;;;19.40;54.20;102048.06;5104725;28;20039;-82
2023/09/26 08:27:51;;;;;;;2.38;1.90;;;;;;;19.27;54.35;102019.69;5100780;28;20020;-82
2023/09/26 08:30:17;;;;;;;2.10;1.90;;;;;;;19.62;54.42;102078.44;5096543;28;20091;-82
2023/09/26 08:32:43;;;;;;;2.70;2.08;;;;;;;19.61;54.06;102072.19;5105279;28;20047;-81
2023/09/26 08:35:10;;;;;;;2.45;2.00;;;;;;;18.75;54.30;101931.09;5115384;28;20082;-82
2023/09/26 08:37:40;;;;;;;3.28;2.15;;;;;;;19.01;54.26;101968.22;5094040;28;20027;-82
2023/09/26 08:40:08;;;;;;;2.58;1.73;;;;;;;18.99;54.36;101957.59;5102804;28;20110;-81
2023/09/26 08:42:37;;;;;;;2.92;2.00;;;;;;;19.07;54.39;101973.03;5103602;28;20031;-81
2023/09/26 08:45:04;;;;;;;3.17;2.10;;;;;;;19.65;54.38;102073.59;5102360;28;20043;-81
2023/09/26 08:47:30;;;;;;;3.17;2.08;;;;;;;19.30;54.19;102004.09;5103635;28;20048;-82
2023/09/26 08:49:57;;;;;;;3.05;2.17;;;;;;;19.47;54.26;102032.16;5104791;28;20031;-81
2023/09/26 08:52:26;;;;;;;2.08;1.88;;;;;;;18.91;54.19;101928.69;5091605;28;20027;-82
2023/09/26 08:54:53;;;;;;;3.45;2.60;;;;;;;19.57;54.23;102032.97;5102273;28;20035;-82
2023/09/26 08:57:19;;;;;;;2.15;1.95;;;;;;;19.58;54.27;102028.44;5093736;28;20020;-82
2023/09/26 08:59:49;;;;;;;3.50;2.22;;;;;;;19.70;53.98;102041.63;5101838;28;20028;-82
2023/09/26 09:02:15;;;;;;;3.28;2.40;;;;;;;19.64;54.13;102030.59;5101619;28;20381;-82
2023/09/26 09:04:45;;;;;;;2.85;2.25;;;;;;;19.71;54.34;102048.75;5095942;28;20035;-80
2023/09/26 09:07:15;;;;;;;3.40;2.25;;;;;;;19.70;54.32;102038.94;5100323;28;20024;-81
2023/09/26 09:10:02;;;;;;;2.92;1.98;;;;;;;19.72;54.05;102033.41;5100270;28;20051;-82
2023/09/26 09:12:28;;;;;;;3.50;2.17;;;;;;;19.37;54.25;101980.94;5110041;28;20032;-82
2023/09/26 09:14:55;;;;;;;3.25;2.15;;;;;;;19.54;54.24;102014.41;5096226;28;20027;-82
2023/09/26 09:17:21;;;;;;;2.08;1.88;;;;;;;19.41;54.30;101992.28;5101168;28;20032;-82
2023/09/26 09:19:51;;;;;;;2.72;2.05;;;;;;;19.72;54.31;102044.22;5095692;28;20024;-81
2023/09/26 09:22:19;;;;;;;2.58;2.03;;;;;;;19.40;54.08;101988.72;5088462;28;20096;-81
2023/09/26 09:24:56;;;;;;;2.95;2.05;;;;;;;19.44;54.24;101992.00;5088004;28;20341;-81
2023/09/26 09:27:32;;;;;;;2.78;2.13;;;;;;;19.30;54.23;101962.78;5097837;28;20039;-82
2023/09/26 09:30:07;;;;;;;2.80;2.25;;;;;;;19.31;54.14;101967.19;5087475;28;20028;-82
2023/09/26 09:32:33;;;;;;;2.72;2.38;;;;;;;18.99;54.39;101917.19;5107844;28;20028;-82
2023/09/26 09:34:59;;;;;;;2.58;1.90;;;;;;;19.72;53.98;102033.41;5095362;28;20027;-82
2023/09/26 09:37:26;;;;;;;3.38;2.30;;;;;;;19.75;54.36;102045.75;5093484;28;20034;-81
2023/09/26 09:39:52;;;;;;;2.35;1.85;;;;;;;19.50;54.48;101994.13;5096508;28;20036;-81
2023/09/26 09:42:19;;;;;;;2.17;1.90;;;;;;;19.68;54.15;102032.00;5095929;28;20023;-81
2023/09/26 09:44:45;;;;;;;2.95;2.22;;;;;;;19.45;54.03;101997.25;5094566;28;20056;-81
2023/09/26 09:47:11;;;;;;;3.00;2.40;;;;;;;19.58;54.17;102017.63;5107271;28;20032;-82
2023/09/26 09:49:47;;;;;;;2.28;1.90;;;;;;;19.46;54.14;101993.56;5092215;28;20061;-81
2023/09/26 09:52:17;;;;;;;3.75;1.88;;;;;;;19.72;54.45;102030.72;5107629;28;20111;-81
2023/09/26 09:54:54;;;;;;;2.33;1.70;;;;;;;19.38;54.55;101963.75;5105013;28;20053;-82
2023/09/26 09:57:22;;;;;;;2.25;1.75;;;;;;;19.79;54.33;102017.47;5093599;28;20465;-82
2023/09/26 09:59:51;;;;;;;3.42;2.00;;;;;;;19.59;54.34;101984.28;5097844;28;20103;-81
2023/09/26 10:02:17;;;;;;;;;;;;;;;19.81;54.21;102020.88;5096816;28;20028;-81
2023/09/26 10:04:47;;;;;;;3.05;2.10;;;;;;;19.74;54.29;102004.41;5102199;28;19908;-82
2023/09/26 10:07:15;;;;;;;3.15;1.95;;;;;;;19.81;54.30;102015.50;5093826;28;20019;-81
2023/09/26 10:09:42;;;;;;;2.40;1.80;;;;;;;19.73;54.33;102002.72;5094564;28;20416;-81
2023/09/26 10:12:09;;;;;;;2.67;2.05;;;;;;;19.53;54.28;101953.34;5099570;28;20028;-82
2023/09/26 10:14:35;;;;;;;3.17;2.10;;;;;;;19.05;54.48;101865.38;5098200;28;20024;-82
2023/09/26 10:17:04;;;;;;;2.47;1.88;;;;;;;19.27;54.45;101912.69;5094125;28;20028;-82
2023/09/26 10:19:30;;;;;;;3.03;2.10;;;;;;;19.83;54.40;102006.22;5106489;28;20107;-82
2023/09/26 10:22:16;;;;;;;2.33;1.88;;;;;;;19.84;54.45;102009.81;5096312;28;20043;-81
2023/09/26 10:24:52;;;;;;;2.33;1.90;;;;;;;19.60;54.66;101959.00;5100257;28;20040;-82
2023/09/26 10:27:24;;;;;;;2.13;1.85;;;;;;;19.62;54.37;101963.28;5105737;28;20542;-82
2023/09/26 10:29:52;;;;;;;2.15;1.80;;;;;;;19.72;54.29;101980.28;5098474;28;20050;-82
2023/09/26 10:32:45;;;;;;;4.25;2.17;;;;;;;19.34;54.35;101903.03;5099461;28;20028;-82
2023/09/26 10:35:13;;;;;;;2.35;1.85;;;;;;;19.36;54.47;101922.59;5089611;28;20032;-81
2023/09/26 10:37:55;;;;;;;1.88;1.63;;;;;;;18.97;54.69;101855.31;5116748;28;20036;-82
2023/09/26 10:40:21;;;;;;;2.10;1.73;;;;;;;19.86;54.35;101992.44;5105262;28;20043;-82
2023/09/26 10:42:48;;;;;;;3.10;1.75;;;;;;;19.84;54.55;101985.50;5103782;28;20026;-81
2023/09/26 10:45:18;;;;;;;2.50;2.13;;;;;;;19.15;54.53;101868.88;5106944;28;20032;-82
2023/09/26 10:47:44;;;;;;;2.50;1.80;;;;;;;19.82;54.61;101991.03;5095836;28;20115;-82
2023/09/26 10:50:15;;;;;;;2.00;1.80;;;;;;;19.83;54.59;101991.88;5107762;28;20515;-81
2023/09/26 10:52:46;;;;;;;2.80;2.03;;;;;;;19.37;54.64;101904.56;5106350;28;20027;-82
2023/09/26 10:55:16;;;;;;;2.55;1.98;;;;;;;19.63;54.67;101950.66;5100824;28;20069;-82
2023/09/26 10:57:43;;;;;;;2.30;1.83;;;;;;;19.71;54.52;101962.41;5106096;28;20557;-82
2023/09/26 11:00:13;;;;;;;2.53;1.88;;;;;;;19.20;54.69;101876.56;5103063;28;20051;-81
2023/09/26 11:02:39;;;;;;;1.65;1.50;;;;;;;19.18;54.46;101876.69;5104913;28;20024;-82
2023/09/26 11:05:09;;;;;;;2.30;1.67;;;;;;;19.51;54.54;101931.06;5105975;28;20062;-81
2023/09/26 11:07:37;;;;;;;2.10;1.60;;;;;;;19.69;54.72;101952.75;5096424;28;20506;-82
2023/09/26 11:10:06;;;;;;;1.85;1.55;;;;;;;19.46;54.65;101917.19;5089162;28;20058;-82
2023/09/26 11:12:32;;;;;;;2.60;1.95;;;;;;;19.92;54.93;102002.66;5105889;28;20459;-82
2023/09/26 11:14:59;;;;;;;2.00;1.67;;;;;;;19.60;54.66;101940.13;5097761;28;20023;-82
2023/09/26 11:17:29;;;;;;;2.25;1.40;;;;;;;19.85;54.58;101979.97;5103370;28;20024;-82
2023/09/26 11:19:59;;;;;;;2.20;1.70;;;;;;;19.93;54.91;101998.97;5105599;28;20081;-82
2023/09/26 11:22:26;;;;;;;1.95;1.70;;;;;;;19.93;54.53;101988.16;5093964;28;20039;-82
2023/09/26 11:25:07;;;;;;;2.15;1.85;;;;;;;19.93;55.05;101982.75;5094310;28;20161;-82